sensor_id;sensor_type;location;lat;lon;timestamp;pressure;altitude;pressure_sealevel;temperature;humidity
10992;BME280;5549;47.028;15.514;2022-07-23T00:00:30;96599.13;;;27.75;41.01
10992;BME280;5549;47.028;15.514;2022-07-23T00:03:01;96599.34;;;27.74;41.07
10992;BME280;5549;47.028;15.514;2022-07-23T00:05:32;96604.38;;;27.70;41.46
10992;BME280;5549;47.028;15.514;2022-07-23T00:08:00;96604.84;;;27.67;41.32
10992;BME280;5549;47.028;15.514;2022-07-23T00:10:27;96602.03;;;27.62;41.79
10992;BME280;5549;47.028;15.514;2022-07-23T00:12:57;96591.47;;;27.49;42.06
10992;BME280;5549;47.028;15.514;2022-07-23T00:15:25;96600.50;;;27.43;42.23
10992;BME280;5549;47.028;15.514;2022-07-23T00:17:55;96590.03;;;27.35;42.46
10992;BME280;5549;47.028;15.514;2022-07-23T00:20:24;96588.88;;;27.31;42.70
10992;BME280;5549;47.028;15.514;2022-07-23T00:22:55;96579.97;;;27.30;42.70
10992;BME280;5549;47.028;15.514;2022-07-23T00:25:24;96583.13;;;27.27;42.50
10992;BME280;5549;47.028;15.514;2022-07-23T00:27:51;96580.66;;;27.26;42.42
10992;BME280;5549;47.028;15.514;2022-07-23T00:30:21;96583.00;;;27.22;42.25
10992;BME280;5549;47.028;15.514;2022-07-23T00:32:56;96583.25;;;27.21;42.37
10992;BME280;5549;47.028;15.514;2022-07-23T00:35:27;96575.16;;;27.21;42.58
10992;BME280;5549;47.028;15.514;2022-07-23T00:37:58;96572.91;;;27.17;42.78
10992;BME280;5549;47.028;15.514;2022-07-23T00:40:27;96572.56;;;27.14;42.97
10992;BME280;5549;47.028;15.514;2022-07-23T00:42:57;96573.84;;;27.11;42.88
10992;BME280;5549;47.028;15.514;2022-07-23T00:45:28;96571.38;;;27.10;42.58
10992;BME280;5549;47.028;15.514;2022-07-23T00:47:59;96573.84;;;27.11;42.68
10992;BME280;5549;47.028;15.514;2022-07-23T00:50:28;96565.75;;;27.11;42.36
10992;BME280;5549;47.028;15.514;2022-07-23T00:52:56;96573.84;;;27.11;42.45
10992;BME280;5549;47.028;15.514;2022-07-23T00:55:24;96577.13;;;27.13;42.50
10992;BME280;5549;47.028;15.514;2022-07-23T00:57:53;96582.16;;;27.10;42.75
10992;BME280;5549;47.028;15.514;2022-07-23T01:00:22;96588.84;;;27.07;42.92
10992;BME280;5549;47.028;15.514;2022-07-23T01:02:50;96585.56;;;27.05;43.00
10992;BME280;5549;47.028;15.514;2022-07-23T01:05:20;96589.31;;;27.04;42.56
10992;BME280;5549;47.028;15.514;2022-07-23T01:07:51;96585.22;;;27.02;43.09
10992;BME280;5549;47.028;15.514;2022-07-23T01:10:19;96587.53;;;26.98;43.44
10992;BME280;5549;47.028;15.514;2022-07-23T01:13:01;96588.22;;;26.94;43.86
10992;BME280;5549;47.028;15.514;2022-07-23T01:15:30;96585.63;;;26.87;44.42
10992;BME280;5549;47.028;15.514;2022-07-23T01:17:58;96582.19;;;26.80;44.70
10992;BME280;5549;47.028;15.514;2022-07-23T01:20:27;96587.69;;;26.73;44.86
10992;BME280;5549;47.028;15.514;2022-07-23T01:22:56;96585.69;;;26.69;45.44
10992;BME280;5549;47.028;15.514;2022-07-23T01:25:24;96588.47;;;26.62;45.35
10992;BME280;5549;47.028;15.514;2022-07-23T01:27:53;96587.03;;;26.48;46.36
10992;BME280;5549;47.028;15.514;2022-07-23T01:30:21;96594.44;;;26.34;46.45
10992;BME280;5549;47.028;15.514;2022-07-23T01:32:49;96588.16;;;26.22;46.78
10992;BME280;5549;47.028;15.514;2022-07-23T01:35:17;96579.34;;;26.15;47.14
10992;BME280;5549;47.028;15.514;2022-07-23T01:37:44;96577.41;;;26.04;47.12
10992;BME280;5549;47.028;15.514;2022-07-23T01:40:16;96575.91;;;25.89;47.97
10992;BME280;5549;47.028;15.514;2022-07-23T01:42:46;96572.91;;;25.79;48.60
10992;BME280;5549;47.028;15.514;2022-07-23T01:45:13;96567.75;;;25.78;48.63
10992;BME280;5549;47.028;15.514;2022-07-23T01:47:41;96560.28;;;25.80;48.35
10992;BME280;5549;47.028;15.514;2022-07-23T01:50:11;96566.03;;;25.83;47.94
10992;BME280;5549;47.028;15.514;2022-07-23T01:52:39;96564.75;;;25.86;47.70
10992;BME280;5549;47.028;15.514;2022-07-23T01:55:10;96563.50;;;25.88;48.27
10992;BME280;5549;47.028;15.514;2022-07-23T01:57:39;96552.72;;;25.88;48.27
10992;BME280;5549;47.028;15.514;2022-07-23T02:00:09;96559.91;;;25.76;48.41
10992;BME280;5549;47.028;15.514;2022-07-23T02:02:39;96557.44;;;25.75;48.21
10992;BME280;5549;47.028;15.514;2022-07-23T02:05:09;96556.78;;;25.79;48.55
10992;BME280;5549;47.028;15.514;2022-07-23T02:07:37;96555.72;;;25.80;48.83
10992;BME280;5549;47.028;15.514;2022-07-23T02:10:07;96562.16;;;25.79;49.02
10992;BME280;5549;47.028;15.514;2022-07-23T02:12:35;96560.50;;;25.78;48.91
10992;BME280;5549;47.028;15.514;2022-07-23T02:15:08;96560.72;;;25.77;48.76
10992;BME280;5549;47.028;15.514;2022-07-23T02:17:36;96565.06;;;25.78;48.13
10992;BME280;5549;47.028;15.514;2022-07-23T02:20:07;96568.34;;;25.80;48.34
10992;BME280;5549;47.028;15.514;2022-07-23T02:22:37;96564.84;;;25.79;48.71
10992;BME280;5549;47.028;15.514;2022-07-23T02:25:08;96563.19;;;25.78;48.56
10992;BME280;5549;47.028;15.514;2022-07-23T02:27:38;96550.19;;;25.75;48.39
10992;BME280;5549;47.028;15.514;2022-07-23T02:30:09;96549.66;;;25.67;48.83
10992;BME280;5549;47.028;15.514;2022-07-23T02:32:38;96553.00;;;25.62;48.43
10992;BME280;5549;47.028;15.514;2022-07-23T02:35:07;96546.81;;;25.62;49.34
10992;BME280;5549;47.028;15.514;2022-07-23T02:37:35;96549.72;;;25.60;49.32
10992;BME280;5549;47.028;15.514;2022-07-23T02:40:04;96554.28;;;25.59;49.61
10992;BME280;5549;47.028;15.514;2022-07-23T02:42:32;96549.56;;;25.55;49.67
10992;BME280;5549;47.028;15.514;2022-07-23T02:45:00;96546.72;;;25.50;50.10
10992;BME280;5549;47.028;15.514;2022-07-23T02:47:31;96551.72;;;25.46;50.40
10992;BME280;5549;47.028;15.514;2022-07-23T02:49:59;96554.84;;;25.43;50.36
10992;BME280;5549;47.028;15.514;2022-07-23T02:52:27;96552.38;;;25.42;49.97
10992;BME280;5549;47.028;15.514;2022-07-23T02:54:55;96552.84;;;25.39;49.66
10992;BME280;5549;47.028;15.514;2022-07-23T02:57:23;96558.22;;;25.39;50.09
10992;BME280;5549;47.028;15.514;2022-07-23T02:59:52;96551.63;;;25.35;50.11
10992;BME280;5549;47.028;15.514;2022-07-23T03:02:20;96553.72;;;25.33;50.30
10992;BME280;5549;47.028;15.514;2022-07-23T03:04:50;96548.78;;;25.30;50.71
10992;BME280;5549;47.028;15.514;2022-07-23T03:07:18;96548.78;;;25.30;50.26
10992;BME280;5549;47.028;15.514;2022-07-23T03:09:45;96547.59;;;25.25;50.36
10992;BME280;5549;47.028;15.514;2022-07-23T03:12:13;96546.16;;;25.23;49.97
10992;BME280;5549;47.028;15.514;2022-07-23T03:14:43;96544.75;;;25.20;50.40
10992;BME280;5549;47.028;15.514;2022-07-23T03:17:11;96545.19;;;25.17;50.76
10992;BME280;5549;47.028;15.514;2022-07-23T03:19:39;96547.72;;;25.12;51.23
10992;BME280;5549;47.028;15.514;2022-07-23T03:22:09;96543.00;;;25.08;51.64
10992;BME280;5549;47.028;15.514;2022-07-23T03:24:36;96538.88;;;25.05;51.53
10992;BME280;5549;47.028;15.514;2022-07-23T03:27:23;96540.38;;;25.01;52.21
10992;BME280;5549;47.028;15.514;2022-07-23T03:29:51;96535.47;;;24.91;52.73
10992;BME280;5549;47.028;15.514;2022-07-23T03:32:21;96539.47;;;24.82;53.13
10992;BME280;5549;47.028;15.514;2022-07-23T03:34:49;96530.28;;;24.65;54.04
10992;BME280;5549;47.028;15.514;2022-07-23T03:37:20;96532.75;;;24.67;53.86
10992;BME280;5549;47.028;15.514;2022-07-23T03:39:48;96537.53;;;24.65;54.28
10992;BME280;5549;47.028;15.514;2022-07-23T03:42:15;96536.94;;;24.62;54.58
10992;BME280;5549;47.028;15.514;2022-07-23T03:44:43;96529.91;;;24.61;54.74
10992;BME280;5549;47.028;15.514;2022-07-23T03:47:10;96540.66;;;24.61;54.66
10992;BME280;5549;47.028;15.514;2022-07-23T03:49:38;96544.81;;;24.57;54.74
10992;BME280;5549;47.028;15.514;2022-07-23T03:52:08;96537.00;;;24.49;55.22
10992;BME280;5549;47.028;15.514;2022-07-23T03:54:37;96547.72;;;24.56;54.84
10992;BME280;5549;47.028;15.514;2022-07-23T03:57:05;96553.47;;;24.59;54.76
10992;BME280;5549;47.028;15.514;2022-07-23T03:59:33;96557.38;;;24.63;54.38
10992;BME280;5549;47.028;15.514;2022-07-23T04:02:00;96555.91;;;24.68;54.54
10992;BME280;5549;47.028;15.514;2022-07-23T04:04:28;96560.81;;;24.71;54.50
10992;BME280;5549;47.028;15.514;2022-07-23T04:06:56;96565.38;;;24.70;55.05
10992;BME280;5549;47.028;15.514;2022-07-23T04:09:26;96569.53;;;24.66;55.64
10992;BME280;5549;47.028;15.514;2022-07-23T04:11:57;96572.03;;;24.61;55.95
10992;BME280;5549;47.028;15.514;2022-07-23T04:14:25;96570.00;;;24.56;56.08
10992;BME280;5549;47.028;15.514;2022-07-23T04:16:52;96571.88;;;24.56;55.81
10992;BME280;5549;47.028;15.514;2022-07-23T04:19:20;96572.09;;;24.54;55.83
10992;BME280;5549;47.028;15.514;2022-07-23T04:21:47;96573.56;;;24.50;55.64
10992;BME280;5549;47.028;15.514;2022-07-23T04:24:15;96574.25;;;24.39;55.89
10992;BME280;5549;47.028;15.514;2022-07-23T04:26:43;96577.19;;;24.31;56.06
10992;BME280;5549;47.028;15.514;2022-07-23T04:29:12;96568.88;;;24.26;56.75
10992;BME280;5549;47.028;15.514;2022-07-23T04:31:39;96578.41;;;24.22;56.94
10992;BME280;5549;47.028;15.514;2022-07-23T04:34:07;96580.06;;;24.23;57.17
10992;BME280;5549;47.028;15.514;2022-07-23T04:36:35;96583.16;;;24.26;56.91
10992;BME280;5549;47.028;15.514;2022-07-23T04:39:02;96577.19;;;24.31;56.77
10992;BME280;5549;47.028;15.514;2022-07-23T04:41:30;96574.28;;;24.33;57.25
10992;BME280;5549;47.028;15.514;2022-07-23T04:43:58;96580.47;;;24.33;57.20
10992;BME280;5549;47.028;15.514;2022-07-23T04:46:27;96570.97;;;24.37;56.97
10992;BME280;5549;47.028;15.514;2022-07-23T04:48:57;96568.84;;;24.46;56.42
10992;BME280;5549;47.028;15.514;2022-07-23T04:51:25;96567.75;;;24.53;56.84
10992;BME280;5549;47.028;15.514;2022-07-23T04:53:52;96566.91;;;24.59;56.62
10992;BME280;5549;47.028;15.514;2022-07-23T04:56:22;96562.09;;;24.68;56.46
10992;BME280;5549;47.028;15.514;2022-07-23T04:58:50;96554.59;;;24.77;55.85
10992;BME280;5549;47.028;15.514;2022-07-23T05:01:18;96566.09;;;24.84;56.92
10992;BME280;5549;47.028;15.514;2022-07-23T05:03:47;96558.88;;;24.84;56.40
10992;BME280;5549;47.028;15.514;2022-07-23T05:06:17;96563.59;;;24.89;56.46
10992;BME280;5549;47.028;15.514;2022-07-23T05:08:44;96571.81;;;24.94;56.83
10992;BME280;5549;47.028;15.514;2022-07-23T05:11:12;96575.91;;;25.03;56.10
10992;BME280;5549;47.028;15.514;2022-07-23T05:13:40;96568.38;;;25.12;56.19
10992;BME280;5549;47.028;15.514;2022-07-23T05:16:07;96567.44;;;25.24;55.72
10992;BME280;5549;47.028;15.514;2022-07-23T05:18:37;96571.06;;;25.37;55.50
10992;BME280;5549;47.028;15.514;2022-07-23T05:21:08;96569.13;;;25.44;55.45
10992;BME280;5549;47.028;15.514;2022-07-23T05:23:36;96569.72;;;25.46;55.24
10992;BME280;5549;47.028;15.514;2022-07-23T05:26:04;96570.91;;;25.50;54.80
10992;BME280;5549;47.028;15.514;2022-07-23T05:28:32;96574.81;;;25.54;54.94
10992;BME280;5549;47.028;15.514;2022-07-23T05:30:59;96571.66;;;25.57;55.13
10992;BME280;5549;47.028;15.514;2022-07-23T05:33:27;96575.78;;;25.59;55.76
10992;BME280;5549;47.028;15.514;2022-07-23T05:36:01;96560.84;;;25.64;55.45
10992;BME280;5549;47.028;15.514;2022-07-23T05:38:31;96557.91;;;25.72;54.98
10992;BME280;5549;47.028;15.514;2022-07-23T05:40:59;96556.16;;;25.77;55.54
10992;BME280;5549;47.028;15.514;2022-07-23T05:43:28;96560.44;;;25.85;55.17
10992;BME280;5549;47.028;15.514;2022-07-23T05:45:55;96558.47;;;25.92;55.44
10992;BME280;5549;47.028;15.514;2022-07-23T05:48:26;96561.72;;;26.01;55.37
10992;BME280;5549;47.028;15.514;2022-07-23T05:50:56;96562.69;;;26.06;54.97
10992;BME280;5549;47.028;15.514;2022-07-23T05:53:23;96559.31;;;26.11;54.58
10992;BME280;5549;47.028;15.514;2022-07-23T05:55:52;96559.00;;;26.19;54.06
10992;BME280;5549;47.028;15.514;2022-07-23T05:58:22;96554.94;;;26.28;54.09
10992;BME280;5549;47.028;15.514;2022-07-23T06:00:50;96565.44;;;26.36;54.26
10992;BME280;5549;47.028;15.514;2022-07-23T06:03:20;96559.13;;;26.42;57.01
10992;BME280;5549;47.028;15.514;2022-07-23T06:05:47;96556.31;;;26.37;57.59
10992;BME280;5549;47.028;15.514;2022-07-23T06:08:15;96560.78;;;26.43;56.09
10992;BME280;5549;47.028;15.514;2022-07-23T06:10:45;96560.25;;;26.65;55.35
10992;BME280;5549;47.028;15.514;2022-07-23T06:13:14;96566.63;;;26.82;55.32
10992;BME280;5549;47.028;15.514;2022-07-23T06:15:43;96556.69;;;26.94;55.28
10992;BME280;5549;47.028;15.514;2022-07-23T06:18:11;96554.28;;;27.04;54.50
10992;BME280;5549;47.028;15.514;2022-07-23T06:20:39;96553.94;;;27.12;53.00
10992;BME280;5549;47.028;15.514;2022-07-23T06:23:06;96560.03;;;27.20;53.48
10992;BME280;5549;47.028;15.514;2022-07-23T06:25:35;96557.56;;;27.30;52.77
10992;BME280;5549;47.028;15.514;2022-07-23T06:28:02;96557.78;;;27.52;53.59
10992;BME280;5549;47.028;15.514;2022-07-23T06:30:32;96558.41;;;27.65;51.46
10992;BME280;5549;47.028;15.514;2022-07-23T06:32:59;96555.69;;;27.89;51.52
10992;BME280;5549;47.028;15.514;2022-07-23T06:35:27;96552.34;;;28.10;50.52
10992;BME280;5549;47.028;15.514;2022-07-23T06:37:54;96560.72;;;28.37;49.47
10992;BME280;5549;47.028;15.514;2022-07-23T06:40:22;96560.38;;;28.62;49.48
10992;BME280;5549;47.028;15.514;2022-07-23T06:42:49;96563.81;;;28.86;48.06
10992;BME280;5549;47.028;15.514;2022-07-23T06:45:17;96562.84;;;29.09;46.70
10992;BME280;5549;47.028;15.514;2022-07-23T06:47:46;96561.53;;;29.28;45.47
10992;BME280;5549;47.028;15.514;2022-07-23T06:50:14;96564.81;;;29.47;45.72
10992;BME280;5549;47.028;15.514;2022-07-23T06:52:41;96567.69;;;29.57;44.49
10992;BME280;5549;47.028;15.514;2022-07-23T06:55:10;96571.03;;;29.64;44.23
10992;BME280;5549;47.028;15.514;2022-07-23T06:57:38;96574.38;;;29.71;44.79
10992;BME280;5549;47.028;15.514;2022-07-23T07:00:07;96571.63;;;29.88;45.26
10992;BME280;5549;47.028;15.514;2022-07-23T07:02:37;96573.81;;;30.08;44.73
10992;BME280;5549;47.028;15.514;2022-07-23T07:05:07;96579.53;;;30.33;44.62
10992;BME280;5549;47.028;15.514;2022-07-23T07:07:35;96572.59;;;30.42;43.48
10992;BME280;5549;47.028;15.514;2022-07-23T07:10:06;96570.66;;;30.59;43.78
10992;BME280;5549;47.028;15.514;2022-07-23T07:12:34;96577.56;;;30.72;42.48
10992;BME280;5549;47.028;15.514;2022-07-23T07:15:02;96575.75;;;30.83;42.95
10992;BME280;5549;47.028;15.514;2022-07-23T07:17:29;96561.38;;;30.82;40.70
10992;BME280;5549;47.028;15.514;2022-07-23T07:19:57;96568.84;;;30.97;41.91
10992;BME280;5549;47.028;15.514;2022-07-23T07:22:26;96575.47;;;31.11;41.71
10992;BME280;5549;47.028;15.514;2022-07-23T07:24:54;96578.06;;;31.23;42.04
10992;BME280;5549;47.028;15.514;2022-07-23T07:27:21;96579.16;;;31.22;41.45
10992;BME280;5549;47.028;15.514;2022-07-23T07:29:49;96582.97;;;31.26;42.15
10992;BME280;5549;47.028;15.514;2022-07-23T07:32:19;96588.69;;;31.30;41.15
10992;BME280;5549;47.028;15.514;2022-07-23T07:34:47;96589.00;;;31.33;40.97
10992;BME280;5549;47.028;15.514;2022-07-23T07:37:15;96593.69;;;31.43;42.17
10992;BME280;5549;47.028;15.514;2022-07-23T07:39:44;96601.09;;;31.52;41.01
10992;BME280;5549;47.028;15.514;2022-07-23T07:42:14;96591.94;;;31.64;41.63
10992;BME280;5549;47.028;15.514;2022-07-23T07:44:41;96600.44;;;31.72;41.45
10992;BME280;5549;47.028;15.514;2022-07-23T07:47:09;96598.56;;;31.78;40.98
10992;BME280;5549;47.028;15.514;2022-07-23T07:49:37;96605.13;;;31.87;40.73
10992;BME280;5549;47.028;15.514;2022-07-23T07:52:05;96604.53;;;31.80;39.84
10992;BME280;5549;47.028;15.514;2022-07-23T07:54:33;96605.13;;;31.87;39.67
10992;BME280;5549;47.028;15.514;2022-07-23T07:57:02;96596.53;;;32.05;41.35
10992;BME280;5549;47.028;15.514;2022-07-23T07:59:30;96605.91;;;32.25;41.09
10992;BME280;5549;47.028;15.514;2022-07-23T08:02:00;96604.31;;;32.39;38.88
10992;BME280;5549;47.028;15.514;2022-07-23T08:04:28;96614.72;;;32.57;39.44
10992;BME280;5549;47.028;15.514;2022-07-23T08:06:58;96610.63;;;32.54;37.45
10992;BME280;5549;47.028;15.514;2022-07-23T08:09:25;96618.53;;;32.66;38.83
10992;BME280;5549;47.028;15.514;2022-07-23T08:11:53;96618.50;;;32.56;38.49
10992;BME280;5549;47.028;15.514;2022-07-23T08:14:22;96619.63;;;32.60;39.07
10992;BME280;5549;47.028;15.514;2022-07-23T08:16:52;96615.81;;;32.61;38.62
10992;BME280;5549;47.028;15.514;2022-07-23T08:19:20;96620.97;;;32.58;39.36
10992;BME280;5549;47.028;15.514;2022-07-23T08:21:47;96622.31;;;32.50;40.19
10992;BME280;5549;47.028;15.514;2022-07-23T08:24:15;96616.63;;;32.62;41.04
10992;BME280;5549;47.028;15.514;2022-07-23T08:26:43;96616.91;;;32.65;41.00
10992;BME280;5549;47.028;15.514;2022-07-23T08:29:10;96607.66;;;32.66;38.90
10992;BME280;5549;47.028;15.514;2022-07-23T08:31:39;96608.47;;;32.67;38.91
10992;BME280;5549;47.028;15.514;2022-07-23T08:34:07;96603.88;;;32.67;39.60
10992;BME280;5549;47.028;15.514;2022-07-23T08:36:35;96602.53;;;32.75;38.92
10992;BME280;5549;47.028;15.514;2022-07-23T08:39:05;96607.19;;;32.90;39.32
10992;BME280;5549;47.028;15.514;2022-07-23T08:41:34;96609.44;;;33.08;39.15
10992;BME280;5549;47.028;15.514;2022-07-23T08:44:02;96615.97;;;33.12;38.66
10992;BME280;5549;47.028;15.514;2022-07-23T08:46:30;96613.25;;;33.12;39.00
10992;BME280;5549;47.028;15.514;2022-07-23T08:48:59;96611.06;;;32.99;38.89
10992;BME280;5549;47.028;15.514;2022-07-23T08:51:27;96610.53;;;33.12;38.30
10992;BME280;5549;47.028;15.514;2022-07-23T08:53:57;96609.44;;;33.18;37.14
10992;BME280;5549;47.028;15.514;2022-07-23T08:56:25;96606.44;;;33.20;38.44
10992;BME280;5549;47.028;15.514;2022-07-23T08:58:53;96604.53;;;33.15;39.22
10992;BME280;5549;47.028;15.514;2022-07-23T09:01:21;96601.53;;;33.06;41.42
10992;BME280;5549;47.028;15.514;2022-07-23T09:03:49;96598.81;;;33.01;40.85
10992;BME280;5549;47.028;15.514;2022-07-23T09:06:18;96594.47;;;33.15;39.90
10992;BME280;5549;47.028;15.514;2022-07-23T09:08:46;96599.13;;;33.45;39.34
10992;BME280;5549;47.028;15.514;2022-07-23T09:11:16;96593.63;;;33.71;39.32
10992;BME280;5549;47.028;15.514;2022-07-23T09:13:47;96598.53;;;33.69;38.11
10992;BME280;5549;47.028;15.514;2022-07-23T09:16:17;96600.19;;;33.70;37.54
10992;BME280;5549;47.028;15.514;2022-07-23T09:18:48;96607.78;;;33.78;37.86
10992;BME280;5549;47.028;15.514;2022-07-23T09:21:23;96602.13;;;33.44;39.35
10992;BME280;5549;47.028;15.514;2022-07-23T09:23:56;96605.63;;;33.19;38.85
10992;BME280;5549;47.028;15.514;2022-07-23T09:26:33;96607.75;;;32.92;36.65
10992;BME280;5549;47.028;15.514;2022-07-23T09:29:07;96599.09;;;33.05;37.08
10992;BME280;5549;47.028;15.514;2022-07-23T09:31:46;96590.94;;;33.20;37.37
10992;BME280;5549;47.028;15.514;2022-07-23T09:34:19;96589.56;;;33.23;38.35
10992;BME280;5549;47.028;15.514;2022-07-23T09:36:51;96590.13;;;33.09;36.79
10992;BME280;5549;47.028;15.514;2022-07-23T09:39:27;96590.59;;;32.91;36.85
10992;BME280;5549;47.028;15.514;2022-07-23T09:41:56;96600.72;;;32.96;36.20
10992;BME280;5549;47.028;15.514;2022-07-23T09:44:24;96605.56;;;32.89;36.58
10992;BME280;5549;47.028;15.514;2022-07-23T09:46:58;96611.59;;;33.06;37.36
10992;BME280;5549;47.028;15.514;2022-07-23T09:49:29;96623.31;;;33.27;38.43
10992;BME280;5549;47.028;15.514;2022-07-23T09:52:01;96629.06;;;33.40;38.58
10992;BME280;5549;47.028;15.514;2022-07-23T09:54:32;96619.81;;;33.41;36.76
10992;BME280;5549;47.028;15.514;2022-07-23T09:57:11;96611.06;;;33.19;37.64
10992;BME280;5549;47.028;15.514;2022-07-23T09:59:43;96599.31;;;32.88;35.78
10992;BME280;5549;47.028;15.514;2022-07-23T10:02:13;96593.88;;;32.83;35.63
10992;BME280;5549;47.028;15.514;2022-07-23T10:04:44;96594.66;;;32.78;35.73
10992;BME280;5549;47.028;15.514;2022-07-23T10:07:14;96587.59;;;32.77;37.15
10992;BME280;5549;47.028;15.514;2022-07-23T10:09:45;96583.75;;;32.68;35.55
10992;BME280;5549;47.028;15.514;2022-07-23T10:12:17;96588.41;;;32.78;35.86
10992;BME280;5549;47.028;15.514;2022-07-23T10:15:01;96584.13;;;32.97;35.23
10992;BME280;5549;47.028;15.514;2022-07-23T10:17:31;96578.97;;;33.26;34.42
10992;BME280;5549;47.028;15.514;2022-07-23T10:19:58;96583.88;;;33.55;36.71
10992;BME280;5549;47.028;15.514;2022-07-23T10:22:31;96581.38;;;33.84;37.23
10992;BME280;5549;47.028;15.514;2022-07-23T10:25:18;96582.69;;;34.06;34.53
10992;BME280;5549;47.028;15.514;2022-07-23T10:28:13;96582.22;;;33.64;33.01
10992;BME280;5549;47.028;15.514;2022-07-23T10:30:49;96583.00;;;33.74;32.99
10992;BME280;5549;47.028;15.514;2022-07-23T10:33:33;96585.47;;;33.71;34.05
10992;BME280;5549;47.028;15.514;2022-07-23T10:36:19;96590.91;;;33.91;34.98
10992;BME280;5549;47.028;15.514;2022-07-23T10:38:54;96585.69;;;34.05;32.56
10992;BME280;5549;47.028;15.514;2022-07-23T10:41:34;96589.94;;;34.31;36.36
10992;BME280;5549;47.028;15.514;2022-07-23T10:44:10;96575.16;;;34.53;34.07
10992;BME280;5549;47.028;15.514;2022-07-23T10:46:57;96568.22;;;34.76;34.07
10992;BME280;5549;47.028;15.514;2022-07-23T10:49:36;96573.22;;;34.53;32.09
10992;BME280;5549;47.028;15.514;2022-07-23T10:52:22;96573.72;;;34.65;34.15
10992;BME280;5549;47.028;15.514;2022-07-23T10:54:54;96572.03;;;34.74;32.43
10992;BME280;5549;47.028;15.514;2022-07-23T10:57:23;96577.25;;;34.71;32.86
10992;BME280;5549;47.028;15.514;2022-07-23T11:00:17;96569.28;;;34.80;31.88
10992;BME280;5549;47.028;15.514;2022-07-23T11:02:51;96571.84;;;35.05;31.98
10992;BME280;5549;47.028;15.514;2022-07-23T11:05:22;96582.53;;;35.01;30.80
10992;BME280;5549;47.028;15.514;2022-07-23T11:08:14;96565.19;;;35.21;30.18
10992;BME280;5549;47.028;15.514;2022-07-23T11:10:47;96561.53;;;35.31;30.67
10992;BME280;5549;47.028;15.514;2022-07-23T11:13:46;96560.94;;;35.68;34.58
10992;BME280;5549;47.028;15.514;2022-07-23T11:16:25;96562.69;;;35.59;30.98
10992;BME280;5549;47.028;15.514;2022-07-23T11:19:08;96563.50;;;35.88;31.77
10992;BME280;5549;47.028;15.514;2022-07-23T11:21:50;96563.38;;;35.98;30.06
10992;BME280;5549;47.028;15.514;2022-07-23T11:24:23;96552.50;;;36.17;30.99
10992;BME280;5549;47.028;15.514;2022-07-23T11:27:03;96545.38;;;36.40;30.72
10992;BME280;5549;47.028;15.514;2022-07-23T11:29:44;96541.94;;;36.53;31.65
10992;BME280;5549;47.028;15.514;2022-07-23T11:32:38;96536.56;;;36.86;29.77
10992;BME280;5549;47.028;15.514;2022-07-23T11:35:27;96541.16;;;36.90;28.65
10992;BME280;5549;47.028;15.514;2022-07-23T11:38:04;96536.50;;;36.91;29.73
10992;BME280;5549;47.028;15.514;2022-07-23T11:40:32;96538.41;;;36.90;28.30
10992;BME280;5549;47.028;15.514;2022-07-23T11:43:04;96535.38;;;36.92;28.64
10992;BME280;5549;47.028;15.514;2022-07-23T11:45:36;96531.97;;;37.00;27.69
10992;BME280;5549;47.028;15.514;2022-07-23T11:48:07;96535.41;;;37.24;28.34
10992;BME280;5549;47.028;15.514;2022-07-23T11:50:37;96534.56;;;37.43;27.66
10992;BME280;5549;47.028;15.514;2022-07-23T11:53:05;96531.22;;;37.46;26.87
10992;BME280;5549;47.028;15.514;2022-07-23T11:55:33;96532.41;;;37.40;25.11
10992;BME280;5549;47.028;15.514;2022-07-23T11:58:03;96528.75;;;37.31;26.25
10992;BME280;5549;47.028;15.514;2022-07-23T12:00:32;96516.38;;;37.33;26.25
10992;BME280;5549;47.028;15.514;2022-07-23T12:03:03;96518.94;;;37.57;27.41
10992;BME280;5549;47.028;15.514;2022-07-23T12:05:34;96516.75;;;37.73;26.12
10992;BME280;5549;47.028;15.514;2022-07-23T12:08:08;96515.25;;;37.80;26.90
10992;BME280;5549;47.028;15.514;2022-07-23T12:10:39;96514.03;;;37.86;27.51
10992;BME280;5549;47.028;15.514;2022-07-23T12:13:15;96509.16;;;37.83;25.79
10992;BME280;5549;47.028;15.514;2022-07-23T12:15:46;96507.72;;;37.72;24.43
10992;BME280;5549;47.028;15.514;2022-07-23T12:18:17;96500.38;;;37.68;25.29
10992;BME280;5549;47.028;15.514;2022-07-23T12:20:50;96498.19;;;37.83;26.21
10992;BME280;5549;47.028;15.514;2022-07-23T12:23:20;96495.94;;;37.99;25.84
10992;BME280;5549;47.028;15.514;2022-07-23T12:25:50;96495.75;;;37.96;24.36
10992;BME280;5549;47.028;15.514;2022-07-23T12:28:21;96502.38;;;37.35;24.59
10992;BME280;5549;47.028;15.514;2022-07-23T12:30:52;96495.06;;;37.30;25.73
10992;BME280;5549;47.028;15.514;2022-07-23T12:33:26;96494.91;;;37.21;27.00
10992;BME280;5549;47.028;15.514;2022-07-23T12:35:58;96489.78;;;37.34;26.82
10992;BME280;5549;47.028;15.514;2022-07-23T12:38:29;96489.00;;;37.47;27.06
10992;BME280;5549;47.028;15.514;2022-07-23T12:41:03;96494.09;;;37.67;27.31
10992;BME280;5549;47.028;15.514;2022-07-23T12:43:36;96486.00;;;37.76;27.02
10992;BME280;5549;47.028;15.514;2022-07-23T12:46:06;96484.75;;;37.68;27.17
10992;BME280;5549;47.028;15.514;2022-07-23T12:48:36;96482.94;;;37.64;27.13
10992;BME280;5549;47.028;15.514;2022-07-23T12:51:07;96481.50;;;37.52;27.12
10992;BME280;5549;47.028;15.514;2022-07-23T12:53:39;96485.66;;;37.50;27.66
10992;BME280;5549;47.028;15.514;2022-07-23T12:56:11;96485.16;;;37.48;26.95
10992;BME280;5549;47.028;15.514;2022-07-23T12:58:46;96485.56;;;37.09;27.37
10992;BME280;5549;47.028;15.514;2022-07-23T13:01:27;96479.47;;;36.79;28.56
10992;BME280;5549;47.028;15.514;2022-07-23T13:04:03;96471.09;;;36.71;27.31
10992;BME280;5549;47.028;15.514;2022-07-23T13:06:36;96465.94;;;36.50;27.11
10992;BME280;5549;47.028;15.514;2022-07-23T13:09:07;96470.88;;;36.29;26.38
10992;BME280;5549;47.028;15.514;2022-07-23T13:11:34;96468.47;;;36.23;27.95
10992;BME280;5549;47.028;15.514;2022-07-23T13:14:04;96470.16;;;36.00;27.15
10992;BME280;5549;47.028;15.514;2022-07-23T13:16:32;96467.19;;;35.96;27.36